Time;durP1;ratioP1;P1;durP2;ratioP2;P2;SDS_P1;SDS_P2;PMS_P1;PMS_P2;Temp;Humidity;BMP_temperature;BMP_pressure;BME280_temperature;BME280_humidity;BME280_pressure;Samples;Min_cycle;Max_cycle;Signal;HPM_P1;HPM_P2
2024/02/03 00:02:43;;;;;;;12.70;10.50;;;;;;;6.53;100.00;100585.48;105418;1284;70251;-57
2024/02/03 00:05:29;;;;;;;14.50;10.70;;;;;;;6.53;100.00;100583.09;105452;1284;60129;-54
2024/02/03 00:08:15;;;;;;;22.70;11.70;;;;;;;6.55;100.00;100577.11;105459;1283;61168;-56
2024/02/03 00:11:07;;;;;;;162.20;38.00;;;;;;;6.58;100.00;100575.55;105468;1286;76004;-57
2024/02/03 00:13:53;;;;;;;11.60;10.20;;;;;;;6.61;100.00;100578.81;105543;1284;68744;-53
2024/02/03 00:16:39;;;;;;;14.40;11.10;;;;;;;6.62;100.00;100580.87;105386;1285;72454;-56
2024/02/03 00:19:26;;;;;;;329.80;131.30;;;;;;;6.64;100.00;100584.47;105434;1284;62267;-55
2024/02/03 00:22:12;;;;;;;;;;;;;;;6.69;100.00;100586.52;105442;1285;62801;-55
2024/02/03 00:25:00;;;;;;;10.00;8.70;;;;;;;6.71;100.00;100588.92;105466;1285;73458;-57
2024/02/03 00:27:47;;;;;;;10.20;9.10;;;;;;;6.68;100.00;100593.89;105457;1285;67276;-56
2024/02/03 00:30:33;;;;;;;9.70;8.60;;;;;;;6.67;100.00;100600.05;105486;1284;71373;-56
2024/02/03 00:33:20;;;;;;;10.40;8.80;;;;;;;6.69;100.00;100598.68;105554;1283;61535;-57
2024/02/03 00:36:07;;;;;;;8.80;8.00;;;;;;;6.70;100.00;100596.97;105483;1283;61574;-57
2024/02/03 00:38:53;;;;;;;9.40;8.00;;;;;;;6.72;100.00;100592.68;105506;1284;73353;-56
2024/02/03 00:41:39;;;;;;;117.00;64.70;;;;;;;6.72;100.00;100594.73;105551;1285;67176;-55
2024/02/03 00:44:25;;;;;;;8.40;7.70;;;;;;;6.77;100.00;100592.48;105324;1285;351924;-57
2024/02/03 00:47:11;;;;;;;8.30;6.70;;;;;;;6.78;100.00;100590.08;105418;1284;61247;-56
2024/02/03 00:49:58;;;;;;;7.00;6.30;;;;;;;6.81;100.00;100594.02;105467;1287;61130;-57
2024/02/03 00:52:44;;;;;;;6.70;6.10;;;;;;;6.82;100.00;100594.36;105438;1283;73296;-56
2024/02/03 00:55:30;;;;;;;224.20;149.50;;;;;;;6.84;100.00;100594.02;105828;1285;71248;-57
2024/02/03 00:58:16;;;;;;;5.80;5.30;;;;;;;6.89;100.00;100590.92;105533;1284;71225;-57
2024/02/03 01:01:03;;;;;;;6.30;5.70;;;;;;;6.91;100.00;100590.41;105493;1285;61275;-57
2024/02/03 01:03:49;;;;;;;5.50;5.00;;;;;;;6.90;100.00;100590.92;105491;1285;61273;-57
2024/02/03 01:06:36;;;;;;;58.40;53.50;;;;;;;6.93;100.00;100592.63;105451;1285;73200;-56
2024/02/03 01:09:22;;;;;;;150.40;47.40;;;;;;;6.97;100.00;100595.36;105477;1287;67268;-57
2024/02/03 01:12:08;;;;;;;5.60;4.60;;;;;;;6.98;100.00;100593.65;105510;1283;71252;-57
2024/02/03 01:14:54;;;;;;;5.20;4.70;;;;;;;7.01;100.00;100594.00;105515;1285;61349;-55
2024/02/03 01:17:41;;;;;;;5.50;4.60;;;;;;;7.00;100.00;100595.02;105527;1283;61282;-57
2024/02/03 01:20:27;;;;;;;4.90;4.50;;;;;;;7.00;100.00;100598.95;84546;1287;5004270;-56
2024/02/03 01:23:13;;;;;;;4.70;4.30;;;;;;;7.01;100.00;100594.33;105107;1285;290507;-57
2024/02/03 01:25:59;;;;;;;4.50;4.10;;;;;;;7.02;100.00;100593.13;105309;1284;72182;-57
2024/02/03 01:28:46;;;;;;;4.90;4.40;;;;;;;7.03;100.00;100590.56;105389;1284;61160;-57
2024/02/03 01:31:32;;;;;;;18.90;14.80;;;;;;;7.05;100.00;100591.07;105364;1285;61175;-57
2024/02/03 01:34:18;;;;;;;4.20;3.80;;;;;;;7.08;100.00;100598.78;105342;1285;73142;-57
2024/02/03 01:37:04;;;;;;;5.20;4.20;;;;;;;7.07;100.00;100599.30;105459;1284;69547;-57
2024/02/03 01:39:51;;;;;;;4.60;4.20;;;;;;;7.08;100.00;100595.18;105324;1285;71224;-57
2024/02/03 01:42:37;;;;;;;4.40;4.00;;;;;;;7.08;100.00;100593.98;105396;1285;61273;-57
2024/02/03 01:45:23;;;;;;;4.70;4.30;;;;;;;7.10;100.00;100595.01;105354;1285;62471;-57
2024/02/03 01:48:13;;;;;;;4.20;3.20;;;;;;;7.11;100.00;100589.69;105331;1285;74399;-55
2024/02/03 01:51:00;;;;;;;3.60;3.30;;;;;;;7.19;100.00;100586.92;105328;1288;66992;-56
2024/02/03 01:53:47;;;;;;;3.20;2.90;;;;;;;7.24;100.00;100590.69;105321;1285;71235;-58
2024/02/03 01:56:35;;;;;;;;;;;;;;;7.27;100.00;100591.01;106664;1285;59018;-58
2024/02/03 01:59:24;;;;;;;4.10;3.50;;;;;;;7.30;100.00;100593.90;106577;1285;59039;-57
2024/02/03 02:02:10;;;;;;;117.70;19.00;;;;;;;7.34;100.00;100590.63;106058;1285;73988;-58
2024/02/03 02:04:56;;;;;;;;;;;;;;;7.41;100.00;100589.58;105389;1285;67167;-57
2024/02/03 02:07:45;;;;;;;21.30;8.20;;;;;;;7.43;100.00;100588.54;105345;1285;73456;-56
2024/02/03 02:10:32;;;;;;;3.40;3.10;;;;;;;7.45;100.00;100588.36;105370;1285;61340;-58
2024/02/03 02:13:18;;;;;;;2.90;2.70;;;;;;;7.46;100.00;100580.46;105328;1285;59235;-58
2024/02/03 02:16:05;;;;;;;3.00;2.70;;;;;;;7.47;100.00;100584.07;105371;1285;74925;-55
2024/02/03 02:18:51;;;;;;;3.90;2.80;;;;;;;7.49;100.00;100583.89;105404;1285;67510;-57
2024/02/03 02:21:37;;;;;;;3.50;3.20;;;;;;;7.50;100.00;100579.42;105376;1285;73967;-57
2024/02/03 02:24:23;;;;;;;3.00;2.70;;;;;;;7.52;100.00;100575.64;105319;1286;61237;-58
2024/02/03 02:27:10;;;;;;;3.20;2.90;;;;;;;7.54;100.00;100572.38;105357;1285;61051;-56
2024/02/03 02:29:56;;;;;;;3.00;2.70;;;;;;;7.54;100.00;100571.69;105412;1285;73149;-57
2024/02/03 02:32:45;;;;;;;2.60;2.40;;;;;;;7.56;100.00;100566.02;105294;1285;71373;-56
2024/02/03 02:35:31;;;;;;;4.40;2.60;;;;;;;7.59;100.00;100563.95;105328;1289;71321;-57
2024/02/03 02:38:18;;;;;;;3.00;2.80;;;;;;;7.64;100.00;100553.29;105439;1285;61154;-57
2024/02/03 02:41:04;;;;;;;3.60;3.30;;;;;;;7.68;100.00;100560.83;105320;1285;61272;-56
2024/02/03 02:43:50;;;;;;;3.00;2.70;;;;;;;7.71;100.00;100559.94;105348;1285;74159;-57
2024/02/03 02:46:37;;;;;;;2.50;2.30;;;;;;;7.75;100.00;100564.90;105348;1285;69990;-57
2024/02/03 02:49:23;;;;;;;3.00;2.80;;;;;;;7.78;100.00;100558.02;105349;1285;72892;-57
2024/02/03 02:52:09;;;;;;;20.00;9.30;;;;;;;7.79;100.00;100569.49;105379;1289;61165;-56
2024/02/03 02:54:56;;;;;;;2.40;2.20;;;;;;;7.84;100.00;100569.80;98009;1287;10003479;-57
2024/02/03 02:57:42;;;;;;;2.50;2.30;;;;;;;7.88;100.00;100575.09;105343;1285;69002;-57
2024/02/03 03:00:29;;;;;;;3.40;2.40;;;;;;;7.92;100.00;100575.41;105290;1286;71434;-57
2024/02/03 03:03:15;;;;;;;4.50;2.50;;;;;;;7.96;100.00;100578.48;105343;1285;59527;-56
2024/02/03 03:06:01;;;;;;;89.10;32.00;;;;;;;8.00;100.00;100579.15;105346;1285;61201;-57
2024/02/03 03:08:47;;;;;;;3.30;2.40;;;;;;;8.04;100.00;100581.35;105348;1285;77142;-55
2024/02/03 03:11:33;;;;;;;5.30;4.20;;;;;;;8.06;100.00;100580.48;105416;1285;71140;-55
2024/02/03 03:14:20;;;;;;;2.40;2.20;;;;;;;8.09;99.64;100579.44;105321;1288;71283;-57
2024/02/03 03:17:06;;;;;;;2.40;2.20;;;;;;;8.10;99.84;100575.83;105315;1285;61141;-57
2024/02/03 03:19:52;;;;;;;2.30;2.10;;;;;;;8.11;99.58;100578.23;105380;1285;61366;-57
2024/02/03 03:22:38;;;;;;;2.90;2.70;;;;;;;8.15;99.60;100574.60;105367;1285;77378;-58
2024/02/03 03:25:25;;;;;;;3.10;2.80;;;;;;;8.16;99.35;100582.14;105362;1285;69975;-56
2024/02/03 03:28:11;;;;;;;3.30;3.10;;;;;;;8.17;99.41;100585.57;105288;1285;71278;-56
2024/02/03 03:30:57;;;;;;;48.10;12.20;;;;;;;8.18;99.58;100582.98;105361;1289;61063;-57
2024/02/03 03:33:43;;;;;;;4.60;2.90;;;;;;;8.19;99.31;100580.23;105339;1285;61178;-57
2024/02/03 03:36:29;;;;;;;12.30;7.70;;;;;;;8.23;98.86;100582.60;105370;1285;77178;-57
2024/02/03 03:39:16;;;;;;;3.80;3.10;;;;;;;8.26;98.87;100584.13;105271;1285;67297;-57
2024/02/03 03:42:03;;;;;;;5.00;2.40;;;;;;;8.29;98.70;100590.98;105400;1287;72184;-56
2024/02/03 03:44:49;;;;;;;2.90;2.50;;;;;;;8.30;98.59;100580.33;106111;1285;61145;-57
2024/02/03 03:47:35;;;;;;;;;;;;;;;8.31;98.53;100585.11;105364;1285;61462;-57
2024/02/03 03:50:21;;;;;;;74.30;19.90;;;;;;;8.32;98.58;100591.64;105367;1285;77870;-57
2024/02/03 03:53:08;;;;;;;3.30;3.00;;;;;;;8.31;98.61;100594.40;105347;1285;69690;-57
2024/02/03 03:55:54;;;;;;;3.70;2.60;;;;;;;8.32;98.48;100595.06;105339;1285;72141;-56
2024/02/03 03:58:40;;;;;;;4.00;3.60;;;;;;;8.35;98.48;100599.36;105341;1285;61183;-56
2024/02/03 04:01:26;;;;;;;1999.90;630.90;;;;;;;8.36;98.17;100594.54;105273;1285;61344;-57
2024/02/03 04:04:13;;;;;;;10.10;6.30;;;;;;;8.39;98.09;100584.55;105332;1288;77357;-55
2024/02/03 04:06:59;;;;;;;4.50;3.10;;;;;;;8.40;97.93;100586.43;105357;1285;67289;-56
2024/02/03 04:09:48;;;;;;;;;;;;;;;8.41;97.87;100586.60;105378;1285;74267;-57
2024/02/03 04:12:34;;;;;;;4.90;4.10;;;;;;;8.42;98.02;100583.16;105370;1285;61254;-57
2024/02/03 04:15:20;;;;;;;8.30;3.80;;;;;;;8.43;97.53;100584.01;105401;1285;60066;-57
2024/02/03 04:18:07;;;;;;;3.50;3.10;;;;;;;8.47;97.60;100579.68;105372;1285;73692;-56
2024/02/03 04:20:53;;;;;;;9.50;3.60;;;;;;;8.47;97.42;100580.89;105376;1284;68925;-56
2024/02/03 04:23:39;;;;;;;5.30;4.30;;;;;;;8.49;97.45;100583.10;105292;1285;71263;-57
2024/02/03 04:26:25;;;;;;;1112.10;429.50;;;;;;;8.51;97.54;100586.18;105375;1285;61288;-57
2024/02/03 04:29:11;;;;;;;6.00;4.40;;;;;;;8.51;97.08;100582.58;105342;1286;61146;-56
2024/02/03 04:31:58;;;;;;;6.50;4.10;;;;;;;8.53;97.44;100590.11;105346;1289;75975;-57
2024/02/03 04:34:44;;;;;;;3.90;3.40;;;;;;;8.52;97.24;100593.55;105333;1290;67177;-57
2024/02/03 04:37:30;;;;;;;4.60;4.10;;;;;;;8.52;97.27;100594.41;105417;1291;71681;-56
2024/02/03 04:40:17;;;;;;;9.80;4.60;;;;;;;8.54;97.10;100595.09;105294;1285;61479;-57
2024/02/03 04:43:03;;;;;;;4.50;3.70;;;;;;;8.59;96.81;100595.91;105477;1285;61109;-56
2024/02/03 04:45:50;;;;;;;7.60;5.50;;;;;;;8.64;96.68;100581.26;105343;1285;73230;-56
2024/02/03 04:48:37;;;;;;;6.40;4.40;;;;;;;8.67;96.47;100589.48;105333;1289;70034;-56
2024/02/03 04:51:23;;;;;;;57.60;27.00;;;;;;;8.67;96.58;100598.08;105377;1289;71282;-57
2024/02/03 04:54:09;;;;;;;5.10;4.10;;;;;;;8.66;96.52;100589.84;105330;1287;63768;-57
2024/02/03 04:56:55;;;;;;;6.70;4.30;;;;;;;8.68;96.41;100595.84;105397;1285;62749;-57
2024/02/03 04:59:42;;;;;;;4.70;4.30;;;;;;;8.69;96.37;100597.73;105391;1285;76575;-57
2024/02/03 05:02:28;;;;;;;5.80;3.90;;;;;;;8.73;95.90;100597.68;105296;1285;67170;-57
2024/02/03 05:05:15;;;;;;;7.10;4.60;;;;;;;8.77;95.75;100588.38;105370;1288;71101;-55
2024/02/03 05:08:01;;;;;;;521.80;247.80;;;;;;;8.78;95.77;100580.28;105935;1285;62444;-57
2024/02/03 05:10:47;;;;;;;4.30;4.00;;;;;;;8.80;95.09;100577.00;105396;1285;61325;-57
2024/02/03 05:13:33;;;;;;;3.50;3.20;;;;;;;8.82;95.21;100574.39;105377;1290;73181;-56
2024/02/03 05:16:20;;;;;;;5.50;4.20;;;;;;;8.82;95.30;100574.74;105369;1288;70080;-57
2024/02/03 05:19:09;;;;;;;5.70;3.80;;;;;;;8.82;94.95;100576.64;105381;1285;70579;-57
2024/02/03 05:21:56;;;;;;;23.00;20.50;;;;;;;8.85;94.63;100573.14;105367;1285;61160;-57
2024/02/03 05:24:42;;;;;;;5.80;3.80;;;;;;;8.87;94.51;100579.65;105400;1285;61166;-56
2024/02/03 05:27:28;;;;;;;4.60;3.50;;;;;;;8.88;94.12;100576.55;105328;1286;74595;-56
2024/02/03 05:30:15;;;;;;;4.00;3.60;;;;;;;8.88;94.08;100582.23;105392;1284;67231;-57
2024/02/03 05:33:01;;;;;;;29.10;19.00;;;;;;;8.85;94.40;100574.69;105305;1285;72271;-54
2024/02/03 05:35:47;;;;;;;17.10;6.70;;;;;;;8.84;94.23;100573.67;105386;1286;61192;-57
2024/02/03 05:38:33;;;;;;;4.70;3.60;;;;;;;8.84;94.48;100581.39;105404;1287;62794;-55
2024/02/03 05:41:20;;;;;;;5.00;4.00;;;;;;;8.84;94.56;100581.39;105380;1285;75992;-56
2024/02/03 05:44:06;;;;;;;4.10;3.70;;;;;;;8.84;94.61;100583.11;105374;1285;67405;-57
2024/02/03 05:46:52;;;;;;;5.90;4.00;;;;;;;8.83;94.64;100573.88;105316;1284;70275;-58
2024/02/03 05:49:39;;;;;;;4.90;4.20;;;;;;;8.83;94.65;100579.73;105435;1285;61219;-57
2024/02/03 05:52:25;;;;;;;;;;;;;;;8.83;94.59;100579.55;105410;1285;61196;-57
2024/02/03 05:55:12;;;;;;;7.40;4.40;;;;;;;8.84;94.54;100575.20;105193;1285;73163;-56
2024/02/03 05:57:58;;;;;;;5.80;4.40;;;;;;;8.84;94.31;100570.57;105312;1285;67304;-58
2024/02/03 06:00:44;;;;;;;5.30;4.30;;;;;;;8.88;94.16;100578.61;105330;1286;74340;-55
2024/02/03 06:03:30;;;;;;;4.90;3.90;;;;;;;8.92;94.16;100588.71;105390;1285;61051;-57
2024/02/03 06:06:17;;;;;;;9.00;5.40;;;;;;;8.92;94.18;100585.95;105332;1285;61292;-55
2024/02/03 06:09:03;;;;;;;367.20;167.70;;;;;;;8.92;94.20;100584.24;105323;1285;73144;-56
2024/02/03 06:11:50;;;;;;;5.80;4.20;;;;;;;8.93;94.22;100589.56;105326;1286;71632;-57
2024/02/03 06:14:40;;;;;;;4.70;4.30;;;;;;;8.93;94.15;100591.45;105304;1285;71148;-57
2024/02/03 06:17:26;;;;;;;5.00;3.90;;;;;;;8.94;94.33;100595.58;105262;1288;61131;-60
2024/02/03 06:20:13;;;;;;;4.30;4.00;;;;;;;8.94;94.45;100603.66;105295;1285;61363;-57
2024/02/03 06:22:59;;;;;;;4.50;4.10;;;;;;;8.92;95.02;100607.63;106600;1285;74447;-59
2024/02/03 06:25:45;;;;;;;5.50;4.00;;;;;;;8.92;94.62;100613.98;106577;1285;68720;-58
2024/02/03 06:28:31;;;;;;;5.00;4.60;;;;;;;8.91;94.63;100620.01;106543;1288;71908;-58
2024/02/03 06:31:17;;;;;;;7.90;5.00;;;;;;;8.86;95.18;100617.81;106592;1288;59026;-56
2024/02/03 06:34:03;;;;;;;207.00;74.00;;;;;;;8.81;95.15;100617.55;106661;1285;60108;-57
2024/02/03 06:36:49;;;;;;;5.20;4.70;;;;;;;8.79;95.34;100612.42;106564;1286;74224;-58
2024/02/03 06:39:35;;;;;;;6.50;5.20;;;;;;;8.76;95.52;100610.38;106501;1285;67135;-57
2024/02/03 06:42:21;;;;;;;5.30;4.90;;;;;;;8.71;96.96;100611.45;106569;1288;72282;-59
2024/02/03 06:45:08;;;;;;;23.60;14.30;;;;;;;8.68;96.83;100619.55;106601;1287;59005;-58
2024/02/03 06:47:54;;;;;;;5.90;4.90;;;;;;;8.66;96.81;100613.04;106671;1286;59157;-56
2024/02/03 06:50:40;;;;;;;6.10;5.20;;;;;;;8.63;97.25;100608.77;106597;1285;73738;-58
2024/02/03 06:53:26;;;;;;;25.40;7.60;;;;;;;8.62;96.74;100606.36;106607;1286;68167;-60
2024/02/03 06:56:12;;;;;;;5.80;5.30;;;;;;;8.64;96.75;100609.79;106558;1285;72040;-60
2024/02/03 06:58:58;;;;;;;22.00;16.70;;;;;;;8.62;96.57;100613.06;106529;1285;59283;-57
2024/02/03 07:01:44;;;;;;;5.50;5.00;;;;;;;8.65;96.72;100609.61;106482;1285;59148;-58
2024/02/03 07:04:30;;;;;;;5.40;5.00;;;;;;;8.65;96.56;100607.89;106586;1285;73902;-58
2024/02/03 07:07:16;;;;;;;8.70;5.30;;;;;;;8.68;96.79;100605.64;106224;1285;68203;-58
2024/02/03 07:10:03;;;;;;;6.10;5.60;;;;;;;8.70;96.93;100612.50;105350;1289;71242;-55
2024/02/03 07:12:49;;;;;;;5.50;4.50;;;;;;;8.74;96.86;100614.01;106570;1285;59573;-59
2024/02/03 07:15:35;;;;;;;5.40;4.90;;;;;;;8.76;96.90;100607.96;106568;1285;59298;-58
